Inicio METAR Ruta Wind Satelite

Informe Meteorológico

Fecha: 2020/09/22 21:52:55 Local
2020.09.23 02:52 UTC


Estado: VENCIDO
Operación:VFR
Puerto Carreno / A. Guauquea, Colombia (SKPC) 06-10N 067-30W
2020.09.22 2300 UTC
Wind: Variable at 2 MPH (2 KT):0
Visibility: greater than 7 mile(s):0
Sky conditions: partly cloudy
Temperature: 80 F (27 C)
Dew Point: 73 F (23 C)
Relative Humidity: 78%
Pressure (altimeter): 29.78 in. Hg (1008 hPa)
ob: SKPC 222300Z VRB02KT 9999 SCT017 SCT070 27/23 A2978 RETS
cycle: 23

SKPC 222200Z 03005KT 9999 TS SCT017CB SCT070 27/23 A2975 RERA RMK CB/S
SKPC 222100Z 08006KT 7000 -TSRA SCT017CB SCT070 27/23 A2971 RMK CB/N
SKPC 222000Z 08007KT 9999 TS SCT020CB 35/21 A2970 RMK CB/SE
SKPC 221900Z 36008KT 9999 SCT020TCU 34/21 A2974 RMK TCU/SE
SKPC 221800Z 05005KT 9999 SCT020 34/21 A2978